Antelope Valley, Nevada Weather observations

Data are for 10 minute period ending at time listed.
 Day   Time   Solar   Ave.   Ave.  Ave.  Vector  Max.   Baro.   Total    
  of    of     Rad.   Air    Rel.  Wind   Wind   Wind  Press.  Precip.   
Year   Day            Temp.  Hum.  Speed  Dir.   Gust                    
2016   (PST)  Kw/m2    F      %     mph   deg.    mph    mb.     in.     
-------------------------------------------------------------------------
 209    5:30   0.07   50.0    56    2.3   198     3.6   854.9    0.00 
 209    5:40   0.09   50.5    58    2.1   191     2.6   855.0    0.00 
 209    5:50   0.12   51.7    56    2.5   172     2.9   855.1    0.00 
 209    6:00   0.14   53.9    59    2.4   166     2.9   855.1    0.00 
 209    6:10   0.17   57.1    52    1.4   149     2.3   855.1    0.00 
 209    6:20   0.20   58.1    59    2.3   257     3.7   855.3    0.00 
 209    6:30   0.23   58.0    59    2.9   251     3.9   855.3    0.00 
 209    6:40   0.26   59.2    56    2.1   227     3.4   855.4    0.00 
 209    6:50   0.29   61.4    51    2.1   203     3.1   855.4    0.00 
 209    7:00   0.33   63.4    52    2.8   200     4.2   855.3    0.00 
 209    7:10   0.36   64.6    50    3.2   202     4.7   855.3    0.00 
 209    7:20   0.39   65.8    48    3.3   207     5.0   855.3    0.00 
 209    7:30   0.42   67.8    46    2.3   217     3.6   855.3    0.00 
 209    7:40   0.45   69.0    44    2.3   234     3.4   855.3    0.00 
 209    7:50   0.48   70.9    39    2.2   232     3.0   855.2    0.00 
 209    8:00   0.51   73.2    40    1.0   227     2.0   855.1    0.00 
 209    8:10   0.54   76.2    37    1.2   201     2.5   855.0    0.00 
 209    8:20   0.57   77.8    33    2.2   198     3.6   854.8    0.00 
 209    8:30   0.60   79.2    34    1.7   188     2.6   854.6    0.00 
 209    8:40   0.62   79.3    37    2.2   224     3.4   854.6    0.00 
 209    8:50   0.65   81.1    38    1.6   212     2.9   854.6    0.00 
 209    9:00   0.67   83.0    33    1.7   230     2.9   854.6    0.00 
 209    9:10   0.70   82.3    35    2.8   243     4.7   854.6    0.00 
 209    9:20   0.72   83.4    33    2.2   238     3.7   854.7    0.00 
 209    9:30   0.74   83.6    31    3.9   239     5.5   854.7    0.00 
 209    9:40   0.76   84.1    36    3.4   222     5.0   854.8    0.00 
 209    9:50   0.79   84.2    30    4.1   229     5.9   854.8    0.00 
 209   10:00   0.81   84.7    33    3.3   216     5.8   854.8    0.00 
 209   10:10   0.82   84.0    38    2.9   230     6.0   854.8    0.00 
 209   10:20   0.85   80.8    44    3.6   240     6.6   854.8    0.01 
 209   10:30   0.86   75.2    44    2.8   221     5.0   854.3    0.00 
 209   10:40   0.88   83.3    34    2.4   188     5.1   854.1    0.00 
 209   10:50   0.89   85.4    35    3.1   204     5.6   854.1    0.00 
 209   11:00   0.89   87.2    30    3.2   206     7.0   854.0    0.00 
 209   11:10   0.90   86.9    33    3.4   234     6.4   854.1    0.00 
 209   11:20   0.91   89.3    24    3.9   195     8.3   854.2    0.00 
 209   11:30   0.91   88.2    29    4.7   210     8.6   854.2    0.00 
 209   11:40   0.90   87.8    29    4.7   237     7.6   854.2    0.00 
 209   11:50   0.89   89.2    25    3.0   215     6.5   854.0    0.00 
 209   12:00   0.92   91.1    20    4.2   208    10.1   853.9    0.00 
 209   12:10   0.91   90.2    27    3.5   243     6.6   853.9    0.00 
 209   12:20   0.92   89.6    30    4.5   221    11.8   853.9    0.00 
 209   12:30   0.91   88.2    25    8.1   240    12.5   853.8    0.00 
 209   12:40   0.91   88.4    26    5.2   228    11.6   853.7    0.00 
 209   12:50   0.91   92.0    19    4.8   202    17.9   853.6    0.00 
 209   13:00   0.89   92.4    19    4.7   216    11.9   853.6    0.00 
 209   13:10   0.86   91.4    20    5.8   270    13.4   853.5    0.00 
 209   13:20   0.88   91.0    22    7.9   265    15.4   853.4    0.00 
 209   13:30   0.87   89.3    26    5.5   241    11.5   853.3    0.00 
 209   13:40   0.85   90.5    20    8.9   250    18.9   853.3    0.00 
 209   13:50   0.84   91.1    21    5.3   268    10.5   853.1    0.00 
 209   14:00   0.82   93.3    16    8.7   293    20.3   852.9    0.00 
 209   14:10   0.80   92.4    16    8.4   282    20.5   852.9    0.00 
 209   14:20   0.78   91.8    17    9.8   277    17.8   852.7    0.00 
 209   14:30   0.76   90.3    20    8.3   272    16.5   852.7    0.00 
 209   14:40   0.74   91.4    16    9.1   272    18.4   852.6    0.00 
 209   14:50   0.71   92.0    17    8.7   273    18.3   852.6    0.00 
 209   15:00   0.69   92.5    16    9.8   284    17.1   852.4    0.00 
 209   15:10   0.67   91.0    18    8.8   268    16.0   852.5    0.00 
 209   15:20   0.64   92.1    15   10.4   273    17.7   852.4    0.00 
 209   15:30   0.61   92.5    15    7.3   263    20.8   852.3    0.00 
 209   15:40   0.58   92.3    14   10.2   284    16.1   852.2    0.00 
 209   15:50   0.56   92.7    15    7.2   275    12.6   852.1    0.00 
 209   16:00   0.53   93.0    14    9.5   292    18.3   852.1    0.00 
 209   16:10   0.50   92.6    14    8.3   296    14.7   852.1    0.00 
 209   16:20   0.47   93.6    15    6.2   303    10.2   852.1    0.00 
 209   16:30   0.44   93.1    14    8.0   296    17.8   852.0    0.00 
 209   16:40   0.41   92.2    13   10.0   289    14.5   852.0    0.00 
 209   16:50   0.38   91.8    13    9.7   298    16.5   852.0    0.00 
 209   17:00   0.35   92.0    14    7.4   313    13.6   851.9    0.00 
 209   17:10   0.31   91.6    15    6.6   308    10.9   851.8    0.00 
 209   17:20   0.28   89.6    17    6.3   270     9.1   851.8    0.00 
 209   17:30   0.25   88.1    20    5.6   288     8.3   851.7    0.00 
 209   17:40   0.22   89.6    17    5.1   320     7.2   851.7    0.00 
 209   17:50   0.19   89.0    18    4.3   294     6.9   851.8    0.00 
 209   18:00   0.17   87.6    16    7.3   288    11.1   851.8    0.00 
 209   18:10   0.14   88.3    15    4.4   295     8.0   851.8    0.00 
 209   18:20   0.12   89.0    15    4.7   302     7.2   852.0    0.00 
 209   18:30   0.09   85.6    16    4.9   299     9.8   852.0    0.00 
 209   18:40   0.07   85.3    17    5.5   306     7.4   852.0    0.00 
 209   18:50   0.05   83.8    17    5.7   314     9.4   852.0    0.00 
 209   19:00   0.02   82.8    17    4.9   315     6.4   852.0    0.00 
 209   19:10   0.01   81.3    17    4.0   320     5.0   852.0    0.00 
 209   19:20   0.01   80.2    17    3.3   321     4.0   851.9    0.00 
 209   19:30   0.00   78.1    20    4.7   312     6.6   851.8    0.00 
 209   19:40   0.00   76.0    21    3.8   315     5.0   851.7    0.00 
 209   19:50   0.00   77.6    15    3.0     1     4.5   851.7    0.00 
 209   20:00   0.00   77.2    16    4.1    54     6.7   851.9    0.00 
 209   20:10   0.00   74.6    21    5.1    66     6.8   852.1    0.00 
 209   20:20   0.00   72.2    23    3.5    64     5.2   852.2    0.00 
 209   20:30   0.00   71.2    20    4.5    81     5.5   852.4    0.00 
 209   20:40   0.00   70.2    26    4.7   107     5.7   852.5    0.00 
 209   20:50   0.00   67.7    27    4.3    94     5.7   852.6    0.00 
 209   21:00   0.00   69.3    22    5.8    90     6.4   852.7    0.00 
 209   21:10   0.00   71.1    18    6.2    81     7.2   852.7    0.00 
 209   21:20   0.00   71.7    17    6.3    82     7.2   852.7    0.00 
 209   21:30   0.00   71.2    19    6.3    95     7.0   852.8    0.00 
 209   21:40   0.00   70.0    22    6.1    98     6.9   852.8    0.00 
 209   21:50   0.00   69.0    25    5.7   107     7.4   852.8    0.00 
 209   22:00   0.00   66.3    28    5.6   110     6.3   852.8    0.00 
 209   22:10   0.00   64.9    30    4.9   106     5.6   852.8    0.00 
 209   22:20   0.00   64.3    34    2.6    72     5.6   853.0    0.00 
 209   22:30   0.00   62.1    39    2.9   231     5.3   853.1    0.00 
 209   22:40   0.00   59.6    48    4.0   213     5.0   853.2    0.00 
 209   22:50   0.00   57.3    55    4.5   192     5.7   853.3    0.00 
 209   23:00   0.00   58.8    44    4.6   200     5.8   853.4    0.00 
 209   23:10   0.00   56.4    59    3.2   252     5.2   853.5    0.00 
 209   23:20   0.00   55.7    55    4.0   236     4.7   853.5    0.00 
 209   23:30   0.00   56.1    52    5.2   195     6.3   853.6    0.00 
 209   23:40   0.00   56.0    54    5.5   192     6.6   853.6    0.00 
 209   23:50   0.00   55.2    54    5.2   174     6.5   853.6    0.00 
 210    0:00   0.00   55.7    50    5.4   192     6.6   853.6    0.00 
 210    0:10   0.00   55.1    52    5.3   186     6.4   853.6    0.00 
 210    0:20   0.00   54.9    52    5.5   188     6.6   853.6    0.00 
 210    0:30   0.00   55.4    48    5.8   179     6.8   853.6    0.00 
 210    0:40   0.00   56.3    45    5.6   193     7.2   853.7    0.00 
 210    0:50   0.00   56.4    42    5.4   169     6.6   853.7    0.00 
 210    1:00   0.00   56.3    43    5.4   168     6.6   853.8    0.00 
 210    1:10   0.00   56.4    42    5.9   177     6.9   853.8    0.00 
 210    1:20   0.00   56.5    43    5.1   174     6.8   853.8    0.00 
 210    1:30   0.00   56.6    42    5.1   191     8.0   853.8    0.00 
 210    1:40   0.00   54.7    50    3.1   219     5.7   853.9    0.00 
 210    1:50   0.00   53.3    53    4.6   249     6.3   854.0    0.00 
 210    2:00   0.00   52.3    56    1.3   216     2.6   854.1    0.00 
 210    2:10   0.00   52.5    54    1.9   245     2.6   854.1    0.00 
 210    2:20   0.00   51.9    54    2.2   195     3.7   854.1    0.00 
 210    2:30   0.00   51.7    56    2.2   216     2.9   854.2    0.00 
 210    2:40   0.00   51.0    62    0.4   258     1.7   854.3    0.00 
 210    2:50   0.00   50.5    60    3.4   149     4.2   854.3    0.00 
 210    3:00   0.00   51.2    56    4.5   183     5.7   854.2    0.00 
 210    3:10   0.00   51.0    57    2.3   178     3.1   854.3    0.00 
 210    3:20   0.00   51.8    52    2.3   174     3.6   854.3    0.00 
 210    3:30   0.00   51.8    51    3.4   156     5.2   854.3    0.00 
 210    3:40   0.00   53.9    43    5.2   182     5.9   854.4    0.00 
 210    3:50   0.00   54.0    41    4.9   183     6.7   854.5    0.00 
 210    4:00   0.00   54.1    42    4.3   202     5.4   854.6    0.00 
 210    4:10   0.00   53.3    44    4.9   190     5.8   854.6    0.00 
 210    4:20   0.00   51.9    46    5.2   183     6.4   854.6    0.00 
 210    4:30   0.00   50.6    53    3.7   163     4.8   854.7    0.00 
 210    4:40   0.00   48.4    62    3.0   168     3.5   854.6    0.00 
 210    4:50   0.00   48.0    66    2.8   255     4.4   854.7    0.00 
 210    5:00   0.01   46.0    68    3.5   268     4.2   854.7    0.00 
 210    5:10   0.01   46.2    72    3.4   225     4.5   854.7    0.00 
 210    5:20   0.03   46.2    70    3.8   186     4.5   854.8    0.00 

Return to Antelope Valley graphs page.


Western Regional Climate Center,wrcc@dri.edu